Longboat Key, Florida
Current Conditions -  °F | °C
As of 8:32 PM on Sunday 23 Nov 2014 (Local Time) from KSRQ Reporting Station
Overcast Overcast  
Wind Chill: 75°   Ceiling: 1400
Heat Index: 75°   Visibility: 10mi
Dew Point: 73°   Wind: 14mph
Humidity: 94%   Direction: 170°S
Pressure: 29.91"   Gusts: NA
Location:  27.37°N, 82.62°W
Report Text: KSRQ 240132Z AUTO 17012KT 10SM OVC014 24/23 A2991 RMK AO2 T02390228
Loading
Personal Weather Stations






























Interactive Weather Map New forecast layout! Learn more

10-Day Weather Forecast

Advertisements
Track Severe Weather on mobile